createdAt,value
2023-01-04T00:01:06.914Z,13.86
2023-01-04T00:03:34.977Z,13.89
2023-01-04T00:06:04.168Z,13.92
2023-01-04T00:08:31.096Z,13.94
2023-01-04T00:11:05.756Z,13.94
2023-01-04T00:13:32.784Z,13.97
2023-01-04T00:16:07.938Z,13.98
2023-01-04T00:18:35.979Z,14.03
2023-01-04T00:21:10.372Z,14.03
2023-01-04T00:23:38.497Z,14.08
2023-01-04T00:26:21.577Z,14.09
2023-01-04T00:28:53.952Z,14.11
2023-01-04T00:31:22.116Z,14.12
2023-01-04T00:33:49.431Z,14.13
2023-01-04T00:36:16.057Z,14.13
2023-01-04T00:38:43.110Z,14.13
2023-01-04T00:41:18.880Z,14.15
2023-01-04T00:43:57.172Z,14.17
2023-01-04T00:46:23.619Z,14.18
2023-01-04T00:48:58.211Z,14.18
2023-01-04T00:51:27.257Z,14.20
2023-01-04T00:53:53.779Z,14.22
2023-01-04T00:56:20.292Z,14.24
2023-01-04T00:58:46.850Z,14.26
2023-01-04T01:01:13.383Z,14.27
2023-01-04T01:03:40.220Z,14.28
2023-01-04T01:06:08.261Z,14.29
2023-01-04T01:08:35.425Z,14.30
2023-01-04T01:11:07.265Z,14.30
2023-01-04T01:13:35.860Z,14.33
2023-01-04T01:16:06.392Z,14.35
2023-01-04T01:18:38.282Z,14.38
2023-01-04T01:21:06.445Z,14.40
2023-01-04T01:23:33.290Z,14.43
2023-01-04T01:26:01.647Z,14.43
2023-01-04T01:28:28.981Z,14.46
2023-01-04T01:30:55.614Z,14.49
2023-01-04T01:33:22.069Z,14.51
2023-01-04T01:35:48.694Z,14.51
2023-01-04T01:38:15.202Z,14.54
2023-01-04T01:40:42.669Z,14.57
2023-01-04T01:43:23.879Z,14.57
2023-01-04T01:45:57.051Z,14.61
2023-01-04T01:48:29.600Z,14.63
2023-01-04T01:51:04.271Z,14.66
2023-01-04T01:53:35.538Z,14.68
2023-01-04T01:56:05.141Z,14.70
2023-01-04T01:58:36.193Z,14.70
2023-01-04T02:01:02.753Z,14.71
2023-01-04T02:03:35.567Z,14.68
2023-01-04T02:06:05.470Z,14.66
2023-01-04T02:08:32.342Z,14.67
2023-01-04T02:10:58.822Z,14.64
2023-01-04T02:13:49.866Z,14.62
2023-01-04T02:16:47.793Z,14.59
2023-01-04T02:19:41.654Z,14.57
2023-01-04T02:22:48.772Z,14.56
2023-01-04T02:25:45.909Z,14.54
2023-01-04T02:28:43.436Z,14.54
2023-01-04T02:31:15.998Z,14.53
2023-01-04T02:33:51.369Z,14.53
2023-01-04T02:36:32.974Z,14.50
2023-01-04T02:39:01.636Z,14.51
2023-01-04T02:41:36.769Z,14.47
2023-01-04T02:44:35.639Z,14.46
2023-01-04T02:47:06.847Z,14.47
2023-01-04T02:49:51.822Z,14.47
2023-01-04T02:52:20.705Z,14.44
2023-01-04T02:54:49.699Z,14.40
2023-01-04T02:57:26.207Z,14.36
2023-01-04T03:00:30.270Z,14.30
2023-01-04T03:03:35.150Z,14.28
2023-01-04T03:06:48.506Z,14.22
2023-01-04T03:09:29.463Z,14.18
2023-01-04T03:12:23.316Z,14.16
2023-01-04T03:15:16.181Z,14.12
2023-01-04T03:17:50.025Z,14.10
2023-01-04T03:20:19.712Z,14.10
2023-01-04T03:23:15.872Z,14.08
2023-01-04T03:26:25.272Z,14.08
2023-01-04T03:29:12.188Z,14.10
2023-01-04T03:32:03.769Z,14.08
2023-01-04T03:34:49.351Z,14.09
2023-01-04T03:37:43.898Z,14.08
2023-01-04T03:40:43.553Z,14.09
2023-01-04T03:43:36.213Z,14.13
2023-01-04T03:46:32.628Z,14.16
2023-01-04T03:49:05.203Z,14.16
2023-01-04T03:51:37.253Z,14.16
2023-01-04T03:54:12.491Z,14.17
2023-01-04T03:56:42.291Z,14.19
2023-01-04T03:59:10.022Z,14.21
2023-01-04T04:01:36.990Z,14.21
2023-01-04T04:04:22.380Z,14.22
2023-01-04T04:07:07.454Z,14.24
2023-01-04T04:09:33.835Z,14.25
2023-01-04T04:12:00.251Z,14.25
2023-01-04T04:14:27.099Z,14.28
2023-01-04T04:16:53.756Z,14.33
2023-01-04T04:19:20.368Z,14.35
2023-01-04T04:21:46.756Z,14.37
2023-01-04T04:24:21.658Z,14.38
2023-01-04T04:26:47.996Z,14.42
2023-01-04T04:29:14.338Z,14.44
2023-01-04T04:31:40.906Z,14.45
2023-01-04T04:34:07.328Z,14.48
2023-01-04T04:36:34.142Z,14.49
2023-01-04T04:39:00.571Z,14.50
2023-01-04T04:41:39.075Z,14.49
2023-01-04T04:44:10.263Z,14.49
2023-01-04T04:46:37.129Z,14.50
2023-01-04T04:49:04.136Z,14.48
2023-01-04T04:51:30.654Z,14.45
2023-01-04T04:53:57.168Z,14.42
2023-01-04T04:56:23.773Z,14.41
2023-01-04T04:58:50.392Z,14.42
2023-01-04T05:01:17.445Z,14.43
2023-01-04T05:03:44.025Z,14.44
2023-01-04T05:06:10.556Z,14.47
2023-01-04T05:08:37.184Z,14.49
2023-01-04T05:11:08.262Z,14.46
2023-01-04T05:13:34.939Z,14.50
2023-01-04T05:16:02.574Z,14.51
2023-01-04T05:18:28.975Z,14.53
2023-01-04T05:20:55.403Z,14.56
2023-01-04T05:23:22.684Z,14.56
2023-01-04T05:25:53.024Z,14.59
2023-01-04T05:28:19.799Z,14.62
2023-01-04T05:30:51.686Z,14.63
2023-01-04T05:33:20.303Z,14.67
2023-01-04T05:35:46.911Z,14.71
2023-01-04T05:38:13.883Z,14.76
2023-01-04T05:40:40.567Z,14.79
2023-01-04T05:43:07.127Z,14.79
2023-01-04T05:45:33.775Z,14.82
2023-01-04T05:48:00.191Z,14.84
2023-01-04T05:50:26.560Z,14.87
2023-01-04T05:52:53.067Z,14.88
2023-01-04T05:55:19.620Z,14.93
2023-01-04T05:57:46.240Z,14.95
2023-01-04T06:00:13.812Z,14.97
2023-01-04T06:02:41.660Z,15.00
2023-01-04T06:05:09.797Z,15.04
2023-01-04T06:07:37.406Z,15.07
2023-01-04T06:10:04.117Z,15.10
2023-01-04T06:12:30.556Z,15.12
2023-01-04T06:14:57.131Z,15.15
2023-01-04T06:17:23.500Z,15.18
2023-01-04T06:19:49.865Z,15.20
2023-01-04T06:22:16.722Z,15.23
2023-01-04T06:24:43.212Z,15.23
2023-01-04T06:27:09.662Z,15.26
2023-01-04T06:29:36.212Z,15.29
2023-01-04T06:32:02.656Z,15.29
2023-01-04T06:34:31.499Z,15.31
2023-01-04T06:36:58.746Z,15.34
2023-01-04T06:39:25.116Z,15.35
2023-01-04T06:41:51.623Z,15.37
2023-01-04T06:44:18.046Z,15.39
2023-01-04T06:46:44.459Z,15.39
2023-01-04T06:49:10.894Z,15.41
2023-01-04T06:51:37.247Z,15.43
2023-01-04T06:54:03.826Z,15.46
2023-01-04T06:56:31.914Z,15.47
2023-01-04T06:58:58.635Z,15.50
2023-01-04T07:01:27.501Z,15.52
2023-01-04T07:03:54.195Z,15.55
2023-01-04T07:06:20.922Z,15.55
2023-01-04T07:08:47.526Z,15.55
2023-01-04T07:11:13.872Z,15.58
2023-01-04T07:13:40.430Z,15.59
2023-01-04T07:16:07.303Z,15.61
2023-01-04T07:18:33.654Z,15.60
2023-01-04T07:21:00.043Z,15.62
2023-01-04T07:23:26.432Z,15.62
2023-01-04T07:25:53.002Z,15.62
2023-01-04T07:28:39.538Z,15.64
2023-01-04T07:31:07.750Z,15.66
2023-01-04T07:33:34.584Z,15.66
2023-01-04T07:36:05.761Z,15.66
2023-01-04T07:38:34.084Z,15.67
2023-01-04T07:41:00.671Z,15.69
2023-01-04T07:43:28.474Z,15.69
2023-01-04T07:45:56.967Z,15.71
2023-01-04T07:48:23.592Z,15.71
2023-01-04T07:50:53.309Z,15.71
2023-01-04T07:53:19.954Z,15.70
2023-01-04T07:55:46.449Z,15.68
2023-01-04T07:58:13.010Z,15.68
2023-01-04T08:00:39.439Z,15.66
2023-01-04T08:03:05.904Z,15.64
2023-01-04T08:05:33.630Z,15.62
2023-01-04T08:08:00.409Z,15.60
2023-01-04T08:10:27.123Z,15.58
2023-01-04T08:12:53.678Z,15.55
2023-01-04T08:15:20.107Z,15.54
2023-01-04T08:17:46.456Z,15.53
2023-01-04T08:20:13.040Z,15.52
2023-01-04T08:22:39.452Z,15.51
2023-01-04T08:25:07.068Z,15.52
2023-01-04T08:27:34.554Z,15.53
2023-01-04T08:30:01.382Z,15.55
2023-01-04T08:32:27.792Z,15.55
2023-01-04T08:34:54.290Z,15.57
2023-01-04T08:37:21.137Z,15.60
2023-01-04T08:39:49.710Z,15.63
2023-01-04T08:42:22.449Z,15.65
2023-01-04T08:44:59.538Z,15.68
2023-01-04T08:47:27.337Z,15.72
2023-01-04T08:49:53.904Z,15.73
2023-01-04T08:52:20.439Z,15.77
2023-01-04T08:54:46.830Z,15.81
2023-01-04T08:57:13.219Z,15.83
2023-01-04T08:59:39.836Z,15.86
2023-01-04T09:02:25.918Z,15.85
2023-01-04T09:04:52.966Z,15.91
2023-01-04T09:07:20.066Z,15.93
2023-01-04T09:09:46.521Z,15.96
2023-01-04T09:12:13.020Z,15.97
2023-01-04T09:14:39.768Z,16.00
2023-01-04T09:17:06.402Z,16.03
2023-01-04T09:19:32.906Z,16.06
2023-01-04T09:21:59.404Z,16.11
2023-01-04T09:24:25.928Z,16.14
2023-01-04T09:26:52.321Z,16.18
2023-01-04T09:29:18.892Z,16.24
2023-01-04T09:31:45.398Z,16.28
2023-01-04T09:34:15.249Z,16.32
2023-01-04T09:36:43.088Z,16.36
2023-01-04T09:39:14.919Z,16.41
2023-01-04T09:42:00.247Z,16.40
2023-01-04T09:47:44.038Z,16.39
2023-01-04T09:50:18.041Z,16.40
2023-01-04T09:53:01.025Z,16.38
2023-01-04T09:55:52.503Z,16.39
2023-01-04T09:58:33.160Z,16.40
2023-01-04T10:01:05.588Z,16.41
2023-01-04T10:03:38.857Z,16.41
2023-01-04T10:06:15.853Z,16.37
2023-01-04T10:08:43.505Z,16.40
2023-01-04T10:11:28.541Z,16.34
2023-01-04T10:14:25.885Z,16.34
2023-01-04T10:17:14.461Z,16.34
2023-01-04T10:21:16.170Z,16.34
2023-01-04T10:23:18.086Z,16.36
2023-01-04T10:26:05.609Z,16.38
2023-01-04T10:28:34.608Z,16.41
2023-01-04T10:31:39.668Z,16.39
2023-01-04T10:34:19.201Z,16.41
2023-01-04T10:36:47.593Z,16.47
2023-01-04T10:39:17.821Z,16.49
2023-01-04T10:41:52.404Z,16.51
2023-01-04T10:44:33.894Z,16.55
2023-01-04T10:47:26.875Z,16.57
2023-01-04T10:49:56.649Z,16.64
2023-01-04T10:52:30.759Z,16.66
2023-01-04T10:55:18.002Z,16.63
2023-01-04T10:58:14.647Z,16.66
2023-01-04T11:00:47.027Z,16.67
2023-01-04T11:03:25.716Z,16.67
2023-01-04T11:06:03.077Z,16.67
2023-01-04T11:08:34.044Z,16.71
2023-01-04T11:11:03.614Z,16.70
2023-01-04T11:13:31.285Z,16.73
2023-01-04T11:15:59.062Z,16.75
2023-01-04T11:18:25.653Z,16.77
2023-01-04T11:20:52.064Z,16.78
2023-01-04T11:23:20.771Z,16.78
2023-01-04T11:25:55.850Z,16.80
2023-01-04T11:28:29.705Z,16.83
2023-01-04T11:31:24.120Z,16.84
2023-01-04T11:34:02.248Z,16.86
2023-01-04T11:36:40.620Z,16.89
2023-01-04T11:39:19.111Z,16.90
2023-01-04T11:42:04.831Z,16.96
2023-01-04T11:44:35.977Z,17.01
2023-01-04T11:47:10.909Z,17.02
2023-01-04T11:49:37.940Z,17.04
2023-01-04T11:52:05.354Z,17.03
2023-01-04T11:54:31.726Z,17.07
2023-01-04T11:57:11.942Z,17.06
2023-01-04T11:59:38.799Z,17.11
2023-01-04T12:02:42.622Z,17.10
2023-01-04T12:05:30.138Z,17.15
2023-01-04T12:07:58.167Z,17.17
2023-01-04T12:10:27.585Z,17.18
2023-01-04T12:12:55.917Z,17.17
2023-01-04T12:15:55.265Z,17.15
2023-01-04T12:18:36.539Z,17.14
2023-01-04T12:21:03.135Z,17.14
2023-01-04T12:23:29.963Z,17.12
2023-01-04T12:25:57.108Z,17.11
2023-01-04T12:28:49.934Z,17.08
2023-01-04T12:31:20.217Z,17.08
2023-01-04T12:34:01.676Z,17.06
2023-01-04T12:36:37.182Z,17.05
2023-01-04T12:39:07.725Z,17.04
2023-01-04T12:41:33.988Z,17.05
2023-01-04T12:44:23.239Z,17.05
2023-01-04T12:47:13.295Z,17.04
2023-01-04T12:49:39.633Z,17.04
2023-01-04T12:54:58.089Z,17.03
2023-01-04T12:57:32.084Z,17.02
2023-01-04T13:00:08.477Z,17.03
2023-01-04T13:02:38.075Z,17.03
2023-01-04T13:08:10.698Z,17.05
2023-01-04T13:10:49.071Z,17.04
2023-01-04T13:13:45.577Z,17.05
2023-01-04T13:16:23.256Z,17.10
2023-01-04T13:18:56.515Z,17.09
2023-01-04T13:21:39.392Z,17.10
2023-01-04T13:24:24.754Z,17.07
2023-01-04T13:26:52.329Z,17.12
2023-01-04T13:29:26.323Z,17.13
2023-01-04T13:32:11.335Z,17.16
2023-01-04T13:34:39.092Z,17.20
2023-01-04T13:37:11.423Z,17.22
2023-01-04T13:39:41.490Z,17.25
2023-01-04T13:42:20.071Z,17.27
2023-01-04T13:45:21.222Z,17.28
2023-01-04T13:47:51.553Z,17.34
2023-01-04T13:50:33.073Z,17.34
2023-01-04T13:53:07.568Z,17.40
2023-01-04T13:55:36.924Z,17.42
2023-01-04T13:58:18.927Z,17.43
2023-01-04T14:00:47.367Z,17.45
2023-01-04T14:03:36.749Z,17.44
2023-01-04T14:06:19.293Z,17.43
2023-01-04T14:09:14.091Z,17.48
2023-01-04T14:12:07.165Z,17.52
2023-01-04T14:15:21.835Z,17.52
2023-01-04T14:17:53.959Z,17.56
2023-01-04T14:20:20.417Z,17.57
2023-01-04T14:22:46.750Z,17.58
2023-01-04T14:25:35.848Z,17.54
2023-01-04T14:28:38.897Z,17.56
2023-01-04T14:31:08.177Z,17.61
2023-01-04T14:33:45.609Z,17.60
2023-01-04T14:36:32.526Z,17.61
2023-01-04T14:39:08.073Z,17.63
2023-01-04T14:41:40.621Z,17.65
2023-01-04T14:44:17.670Z,17.67
2023-01-04T14:46:48.090Z,17.71
2023-01-04T14:49:15.944Z,17.76
2023-01-04T14:51:46.242Z,17.77
2023-01-04T14:54:18.913Z,17.80
2023-01-04T14:56:49.110Z,17.83
2023-01-04T14:59:15.536Z,17.87
2023-01-04T15:01:42.019Z,17.87
2023-01-04T15:04:08.667Z,17.89
2023-01-04T15:06:35.679Z,17.87
2023-01-04T15:09:03.236Z,17.87
2023-01-04T15:11:31.335Z,17.85
2023-01-04T15:13:57.730Z,17.83
2023-01-04T15:16:24.157Z,17.80
2023-01-04T15:18:50.777Z,17.78
2023-01-04T15:21:17.275Z,17.77
2023-01-04T15:23:43.759Z,17.72
2023-01-04T15:26:11.846Z,17.72
2023-01-04T15:28:38.269Z,17.72
2023-01-04T15:31:10.419Z,17.68
2023-01-04T15:33:37.376Z,17.69
2023-01-04T15:36:21.710Z,17.66
2023-01-04T15:38:54.300Z,17.67
2023-01-04T15:41:39.605Z,17.67
2023-01-04T15:44:09.819Z,17.64
2023-01-04T15:46:36.258Z,17.63
2023-01-04T15:49:04.338Z,17.60
2023-01-04T15:51:30.783Z,17.57
2023-01-04T15:53:57.286Z,17.54
2023-01-04T15:56:23.753Z,17.52
2023-01-04T15:58:55.229Z,17.47
2023-01-04T16:01:22.046Z,17.48
2023-01-04T16:03:53.395Z,17.46
2023-01-04T16:06:21.136Z,17.45
2023-01-04T16:08:50.367Z,17.45
2023-01-04T16:11:20.738Z,17.46
2023-01-04T16:13:49.275Z,17.48
2023-01-04T16:16:17.323Z,17.51
2023-01-04T16:18:50.141Z,17.50
2023-01-04T16:21:21.118Z,17.53
2023-01-04T16:24:01.758Z,17.54
2023-01-04T16:26:33.262Z,17.57
2023-01-04T16:29:00.725Z,17.59
2023-01-04T16:31:35.473Z,17.59
2023-01-04T16:34:03.145Z,17.62
2023-01-04T16:36:30.082Z,17.62
2023-01-04T16:38:57.369Z,17.64
2023-01-04T16:41:25.044Z,17.65
2023-01-04T16:43:55.065Z,17.66
2023-01-04T16:46:28.649Z,17.67
2023-01-04T16:49:01.543Z,17.69
2023-01-04T16:51:30.667Z,17.72
2023-01-04T16:53:57.509Z,17.76
2023-01-04T16:56:25.106Z,17.79
2023-01-04T16:58:52.310Z,17.81
2023-01-04T17:01:27.874Z,17.83
2023-01-04T17:03:56.911Z,17.86
2023-01-04T17:06:26.579Z,17.89
2023-01-04T17:08:54.614Z,17.92
2023-01-04T17:12:11.521Z,17.96
2023-01-04T17:14:14.062Z,17.99
2023-01-04T17:16:40.874Z,18.01
2023-01-04T17:19:10.124Z,18.03
2023-01-04T17:21:36.806Z,18.04
2023-01-04T17:24:03.900Z,18.06
2023-01-04T17:26:32.422Z,18.08
2023-01-04T17:29:00.287Z,18.09
2023-01-04T17:31:29.320Z,18.09
2023-01-04T17:33:56.185Z,18.11
2023-01-04T17:36:23.078Z,18.10
2023-01-04T17:38:50.308Z,18.11
2023-01-04T17:41:21.095Z,18.11
2023-01-04T17:43:50.704Z,18.09
2023-01-04T17:46:23.427Z,18.10
2023-01-04T17:48:58.899Z,18.08
2023-01-04T17:51:38.698Z,18.07
2023-01-04T17:54:05.746Z,18.05
2023-01-04T17:56:33.448Z,18.00
2023-01-04T17:59:02.661Z,17.95
2023-01-04T18:01:30.386Z,17.92
2023-01-04T18:03:59.504Z,17.87
2023-01-04T18:06:31.440Z,17.81
2023-01-04T18:08:58.600Z,17.77
2023-01-04T18:11:25.509Z,17.75
2023-01-04T18:13:53.248Z,17.72
2023-01-04T18:18:47.326Z,17.70
2023-01-04T18:21:28.804Z,17.68
2023-01-04T18:27:20.013Z,17.75
2023-01-04T18:29:33.095Z,17.76
2023-01-04T18:31:59.721Z,17.78
2023-01-04T18:34:26.683Z,17.79
2023-01-04T18:36:53.847Z,17.82
2023-01-04T18:39:20.504Z,17.83
2023-01-04T18:41:48.180Z,17.85
2023-01-04T18:47:02.520Z,17.89
2023-01-04T18:49:29.260Z,17.90
2023-01-04T18:51:55.623Z,17.91
2023-01-04T18:54:22.213Z,17.93
2023-01-04T18:56:49.029Z,17.95
2023-01-04T18:59:17.333Z,17.97
2023-01-04T19:01:45.907Z,17.98
2023-01-04T19:04:13.987Z,18.00
2023-01-04T19:06:41.025Z,18.04
2023-01-04T19:09:08.150Z,18.04
2023-01-04T19:11:36.499Z,18.03
2023-01-04T19:14:04.152Z,18.03
2023-01-04T19:16:31.577Z,18.03
2023-01-04T19:19:01.266Z,18.01
2023-01-04T19:21:29.794Z,18.04
2023-01-04T19:23:56.375Z,18.06
2023-01-04T19:26:23.747Z,18.09
2023-01-04T19:28:51.380Z,18.08
2023-01-04T19:31:20.075Z,18.04
2023-01-04T19:33:47.170Z,18.06
2023-01-04T19:36:18.837Z,18.04
2023-01-04T19:38:45.699Z,18.05
2023-01-04T19:41:20.761Z,18.01
2023-01-04T19:43:47.388Z,18.02
2023-01-04T19:46:14.027Z,18.04
2023-01-04T19:48:41.152Z,18.03
2023-01-04T19:51:16.165Z,18.02
2023-01-04T19:53:44.986Z,18.04
2023-01-04T19:56:13.473Z,18.04
2023-01-04T19:58:40.629Z,18.03
2023-01-04T20:01:13.426Z,18.02
2023-01-04T20:03:39.911Z,18.01
2023-01-04T20:06:06.903Z,17.97
2023-01-04T20:08:33.696Z,17.96
2023-01-04T20:11:01.942Z,17.94
2023-01-04T20:13:29.961Z,17.91
2023-01-04T20:15:56.402Z,17.91
2023-01-04T20:18:24.111Z,17.89
2023-01-04T20:20:52.139Z,17.89
2023-01-04T20:23:19.544Z,17.90
2023-01-04T20:25:49.260Z,17.90
2023-01-04T20:28:18.497Z,17.88
2023-01-04T20:30:46.808Z,17.89
2023-01-04T20:33:13.348Z,17.90
2023-01-04T20:35:42.314Z,17.88
2023-01-04T20:38:10.101Z,17.90
2023-01-04T20:40:38.540Z,17.89
2023-01-04T20:43:23.466Z,17.89
2023-01-04T20:45:49.894Z,17.90
2023-01-04T20:48:16.643Z,17.88
2023-01-04T20:50:43.322Z,17.88
2023-01-04T20:53:13.721Z,17.87
2023-01-04T20:55:41.817Z,17.85
2023-01-04T20:58:10.578Z,17.84
2023-01-04T21:00:39.326Z,17.81
2023-01-04T21:03:07.614Z,17.78
2023-01-04T21:05:39.475Z,17.75
2023-01-04T21:08:06.476Z,17.74
2023-01-04T21:10:33.245Z,17.71
2023-01-04T21:12:59.640Z,17.69
2023-01-04T21:15:26.211Z,17.67
2023-01-04T21:17:52.637Z,17.66
2023-01-04T21:20:21.526Z,17.64
2023-01-04T21:22:47.993Z,17.65
2023-01-04T21:25:14.700Z,17.63
2023-01-04T21:27:41.117Z,17.64
2023-01-04T21:30:08.022Z,17.65
2023-01-04T21:32:34.478Z,17.64
2023-01-04T21:35:00.996Z,17.63
2023-01-04T21:37:29.425Z,17.61
2023-01-04T21:39:55.932Z,17.56
2023-01-04T21:42:22.629Z,17.51
2023-01-04T21:44:48.961Z,17.45
2023-01-04T21:47:15.782Z,17.38
2023-01-04T21:49:43.804Z,17.32
2023-01-04T21:52:11.277Z,17.28
2023-01-04T21:54:38.585Z,17.22
2023-01-04T21:57:08.174Z,17.18
2023-01-04T21:59:36.387Z,17.13
2023-01-04T22:02:03.469Z,17.12
2023-01-04T22:04:30.390Z,17.09
2023-01-04T22:06:57.068Z,17.07
2023-01-04T22:09:23.799Z,17.06
2023-01-04T22:11:50.750Z,17.07
2023-01-04T22:14:18.520Z,17.07
2023-01-04T22:16:45.025Z,17.10
2023-01-04T22:19:13.243Z,17.11
2023-01-04T22:21:40.435Z,17.14
2023-01-04T22:24:09.078Z,17.16
2023-01-04T22:26:35.775Z,17.20
2023-01-04T22:29:02.427Z,17.26
2023-01-04T22:31:28.954Z,17.27
2023-01-04T22:33:55.442Z,17.29
2023-01-04T22:36:23.772Z,17.31
2023-01-04T22:38:54.956Z,17.33
2023-01-04T22:41:24.171Z,17.36
2023-01-04T22:44:01.773Z,17.38
2023-01-04T22:46:29.322Z,17.42
2023-01-04T22:48:56.969Z,17.46
2023-01-04T22:51:25.407Z,17.50
2023-01-04T22:53:59.697Z,17.51
2023-01-04T22:56:26.910Z,17.54
2023-01-04T22:58:55.525Z,17.57
2023-01-04T23:01:28.130Z,17.57
2023-01-04T23:03:55.413Z,17.60
2023-01-04T23:06:22.689Z,17.61
2023-01-04T23:09:01.124Z,17.60
2023-01-04T23:11:28.402Z,17.63
2023-01-04T23:13:55.348Z,17.66
2023-01-04T23:16:27.884Z,17.66
2023-01-04T23:18:58.215Z,17.67
2023-01-04T23:21:24.549Z,17.65
2023-01-04T23:23:51.288Z,17.65
2023-01-04T23:26:21.012Z,17.65
2023-01-04T23:28:48.472Z,17.66
2023-01-04T23:31:16.728Z,17.66
2023-01-04T23:33:43.351Z,17.68
2023-01-04T23:36:21.396Z,17.67
2023-01-04T23:38:54.098Z,17.65
2023-01-04T23:41:21.224Z,17.67
2023-01-04T23:43:47.672Z,17.68
2023-01-04T23:46:17.107Z,17.65
2023-01-04T23:48:44.681Z,17.67
2023-01-04T23:51:13.825Z,17.65
2023-01-04T23:53:40.222Z,17.67
2023-01-04T23:56:13.443Z,17.65
2023-01-04T23:58:39.894Z,17.66
